• Join FlightAware (Why Join?)
  • Login
  • US Flag 
04:44AM EDT


 

Airport Tracker/Info


-or-


 

Live Flight TrackerFlight Track Log ✈ ASQ4633 ✈ 21-Apr-2013 ✈ KEWR - KBTV

Flight Track Log - Related Links

Times and Time Zones

All times are in EDT time to prevent confusion due to time zone crossing. See the ASQ4633 flight status page for this flight to view local times or setup timezone preferences in your user account.

Time Position Orientation Groundspeed Altitude Reporting Facility
EDT Latitude Longitude Course Direction KTS MPH feet Rate Location/Type
02:05PM 40.7333 -74.1167 48° Northeast 205 236 2,900  Level New York TRACON
02:06PM 40.7833 -74.0833 27° Northeast 239 275 4,600 2,280 Climbing New York TRACON
02:07PM 40.9648 -73.8519 37° Northeast  Level FlightAware Approximate
02:07PM 40.8664 -73.9742 45° Northeast 251 289 9,000  Level Boston Center
02:08PM 41.0395 -73.7724 40° Northeast  Level FlightAware Approximate
02:08PM 40.9278 -73.9125 37° Northeast 256 295 10,700  Level Boston Center
02:09PM 41.1125 -73.6901 40° Northeast  Level FlightAware Approximate
02:09PM 40.9847 -73.8506 39° Northeast 288 331 11,600  Level Boston Center
02:10PM 41.1917 -73.6208 48° Northeast  Level FlightAware Approximate
02:10PM 41.0778 -73.7508 39° Northeast 349 402 13,000  Level Boston Center
02:11PM 41.1600 -73.6614 39° Northeast 368 423 14,100 1,200 Climbing Boston Center
02:12PM 41.2444 -73.5692 39° Northeast 385 443 15,400 1,200 Climbing Boston Center
02:13PM 41.3306 -73.4767 39° Northeast 391 450 16,600 1,200 Climbing Boston Center
02:14PM 41.4189 -73.3842 38° Northeast 402 463 17,900 900 Climbing Boston Center
02:15PM 41.5072 -73.2828 41° Northeast 407 468 18,500 900 Climbing Boston Center
02:16PM 41.5914 -73.1700 45° Northeast 407 468 19,700 1,200 Climbing Boston Center
02:17PM 41.6961 -73.1183 20° North 407 468 21,000 1,200 Climbing Boston Center
02:18PM 41.8064 -73.1364 353° North 377 434 22,200 1,200 Climbing Boston Center
02:19PM 41.9167 -73.1569 352° North 385 443 23,500 1,260 Climbing Boston Center
02:20PM 42.0269 -73.1781 352° North 385 443 24,700 720 Climbing Boston Center
02:21PM 42.1394 -73.1961 353° North 395 455 25,000 120 Climbing Boston Center
02:22PM 42.2622 -73.2172 353° North 417 480 25,000  Level Boston Center
02:23PM 42.3831 -73.2300 356° North 431 496 25,000  Level Boston Center
02:24PM 42.5039 -73.2567 351° North 436 502 25,000  Level Boston Center
02:25PM 42.5975 -73.2664 356° North 436 502 25,000  Level Boston Center
02:26PM 42.7264 -73.2992 349° North 431 496 25,000  Level Boston Center
02:27PM 42.8450 -73.3208 352° North 426 490 25,000  Level Boston Center
02:28PM 42.9575 -73.3394 353° North 426 490 25,000  Level Boston Center
02:29PM 43.0783 -73.3383 360° North 426 490 25,000 -300 Level Boston Center
02:30PM 43.1994 -73.3231 North 426 490 24,500 -540 Descending Boston Center
02:31PM 43.3203 -73.3106 North 426 490 24,000 -540 Descending Boston Center
02:32PM 43.4497 -73.2922 North 426 490 23,500 -960 Descending Boston Center
02:33PM 43.4301 -73.2914 North  Level FlightAware Approximate
02:33PM 43.5686 -73.2797 North 426 490 22,100  Level Boston Center
02:34PM 43.6811 -73.2697 North 420 483 20,700 -1,500 Descending Boston Center
02:35PM 43.7792 -73.2567 North 399 459 19,100 -1,500 Descending Boston Center
02:36PM 43.8750 -73.2464 North 360 414 17,700 -2,100 Descending Boston Center
02:37PM 43.9669 -73.2361 North 333 383 14,900 -2,760 Descending Boston Center
02:38PM 44.0525 -73.2228 North 317 365 12,200 -2,280 Descending Boston Center
02:39PM 44.1317 -73.1950 14° North 301 346 10,400 -2,100 Descending Boston Center
02:40PM 44.1986 -73.1669 17° North 269 310 8,100 -2,100 Descending Boston Center
02:41PM 44.2633 -73.1386 17° North 242 278 6,200 -2,040 Descending Boston Center
02:42PM 44.3239 -73.1103 19° North 212 244 4,100 -1,500 Descending Boston Center
02:43PM 44.3617 -73.0964 15° North 200 230 3,200 -900 Descending Boston Center